Kaiser, Missouri
Current Conditions -  °F | °C
As of 11:55 AM on Friday 28 Nov 2014 (Local Time) from KAIZ Reporting Station
Clear Clear  
Wind Chill: 57°   Ceiling: Unl
Heat Index: 57°   Visibility: 10mi
Dew Point: 32°   Wind: 15mph
Humidity: 38%   Direction: 220°SW
Pressure: 29.98"   Gusts: 21mph
Location:  38.13°N, 92.59°W
Report Text: KAIZ 281755Z AUTO 22013G18KT 10SM CLR 14/00 A2998 RMK AO1 10140 20000 57044
Loading
Personal Weather Stations






























Interactive Weather Map New forecast layout! Learn more

10-Day Weather Forecast

Advertisements
Track Severe Weather on mobile